sensor_id;sensor_type;location;lat;lon;timestamp;pressure;altitude;pressure_sealevel;temperature;humidity
71764;BME280;59602;52.142;5.408;2023-04-19T01:53:50;102909.41;;;9.44;76.14
71764;BME280;59602;52.142;5.408;2023-04-19T01:57:39;102911.50;;;9.47;76.10
71764;BME280;59602;52.142;5.408;2023-04-19T06:28:34;102929.13;;;10.14;61.49
71764;BME280;59602;52.142;5.408;2023-04-19T06:31:02;102925.72;;;10.26;60.59
71764;BME280;59602;52.142;5.408;2023-04-19T06:33:28;102927.31;;;10.35;60.50
71764;BME280;59602;52.142;5.408;2023-04-19T06:35:56;102921.66;;;10.49;60.67
71764;BME280;59602;52.142;5.408;2023-04-19T06:38:22;102927.97;;;10.62;58.95
71764;BME280;59602;52.142;5.408;2023-04-19T06:40:49;102922.97;;;10.73;57.67
71764;BME280;59602;52.142;5.408;2023-04-19T06:43:15;102921.00;;;10.82;57.30
71764;BME280;59602;52.142;5.408;2023-04-19T06:45:43;102924.44;;;10.91;56.33
71764;BME280;59602;52.142;5.408;2023-04-19T06:48:10;102929.38;;;10.98;55.26
71764;BME280;59602;52.142;5.408;2023-04-19T06:50:36;102926.59;;;11.07;54.65
71764;BME280;59602;52.142;5.408;2023-04-19T06:53:03;102930.06;;;11.16;53.54
71764;BME280;59602;52.142;5.408;2023-04-19T06:55:31;102929.66;;;11.26;54.25
71764;BME280;59602;52.142;5.408;2023-04-19T06:57:58;102922.53;;;11.34;52.51
71764;BME280;59602;52.142;5.408;2023-04-19T07:00:24;102929.28;;;11.36;52.21
71764;BME280;59602;52.142;5.408;2023-04-19T07:02:52;102927.34;;;11.37;51.56
71764;BME280;59602;52.142;5.408;2023-04-19T07:05:19;102922.63;;;11.46;52.17
71764;BME280;59602;52.142;5.408;2023-04-19T07:07:46;102936.28;;;11.58;52.13
71764;BME280;59602;52.142;5.408;2023-04-19T07:10:12;102926.91;;;11.68;51.34
71764;BME280;59602;52.142;5.408;2023-04-19T07:12:39;102932.81;;;11.70;50.99
71764;BME280;59602;52.142;5.408;2023-04-19T07:15:06;102924.09;;;11.77;50.29
71764;BME280;59602;52.142;5.408;2023-04-19T07:17:34;102927.72;;;11.81;49.70
71764;BME280;59602;52.142;5.408;2023-04-19T07:20:01;102928.19;;;11.83;49.61
71764;BME280;59602;52.142;5.408;2023-04-19T07:33:43;102939.63;;;11.97;48.76
71764;BME280;59602;52.142;5.408;2023-04-19T07:36:12;102930.31;;;11.98;48.82
71764;BME280;59602;52.142;5.408;2023-04-19T07:38:55;102928.03;;;12.00;47.85
71764;BME280;59602;52.142;5.408;2023-04-19T07:41:25;102931.13;;;11.99;47.50
71764;BME280;59602;52.142;5.408;2023-04-19T07:49:28;102935.47;;;12.24;47.72
71764;BME280;59602;52.142;5.408;2023-04-19T07:52:00;102939.59;;;12.31;46.84
71764;BME280;59602;52.142;5.408;2023-04-19T07:54:31;102940.81;;;12.33;46.55
71764;BME280;59602;52.142;5.408;2023-04-19T07:57:27;102940.59;;;12.38;46.98
71764;BME280;59602;52.142;5.408;2023-04-19T08:03:25;102946.97;;;12.42;46.58
71764;BME280;59602;52.142;5.408;2023-04-19T08:10:12;102944.84;;;12.48;46.17
71764;BME280;59602;52.142;5.408;2023-04-19T08:12:42;102942.75;;;12.45;45.32
71764;BME280;59602;52.142;5.408;2023-04-19T08:15:39;102943.56;;;12.45;46.43
71764;BME280;59602;52.142;5.408;2023-04-19T08:18:26;102945.25;;;12.50;45.91
71764;BME280;59602;52.142;5.408;2023-04-19T08:20:57;102937.75;;;12.47;44.87
71764;BME280;59602;52.142;5.408;2023-04-19T08:23:55;102934.13;;;12.43;45.45
71764;BME280;59602;52.142;5.408;2023-04-19T08:26:25;102943.09;;;12.43;45.31
71764;BME280;59602;52.142;5.408;2023-04-19T08:28:56;102933.34;;;12.42;45.01
71764;BME280;59602;52.142;5.408;2023-04-19T08:31:29;102937.63;;;12.43;44.72
71764;BME280;59602;52.142;5.408;2023-04-19T08:34:15;102946.28;;;12.45;44.29
71764;BME280;59602;52.142;5.408;2023-04-19T08:37:06;102943.34;;;12.51;44.89
71764;BME280;59602;52.142;5.408;2023-04-19T08:39:33;102932.53;;;12.54;44.65
71764;BME280;59602;52.142;5.408;2023-04-19T08:42:04;102936.97;;;12.59;44.54
71764;BME280;59602;52.142;5.408;2023-04-19T08:44:50;102929.13;;;12.57;43.96
71764;BME280;59602;52.142;5.408;2023-04-19T08:47:37;102931.63;;;12.50;44.51
71764;BME280;59602;52.142;5.408;2023-04-19T08:50:07;102936.09;;;12.55;44.38
71764;BME280;59602;52.142;5.408;2023-04-19T08:53:00;102923.78;;;12.49;44.67
71764;BME280;59602;52.142;5.408;2023-04-19T08:55:51;102925.94;;;12.43;43.33
71764;BME280;59602;52.142;5.408;2023-04-19T08:58:27;102919.25;;;12.53;43.21
71764;BME280;59602;52.142;5.408;2023-04-19T09:01:16;102924.00;;;12.56;41.87
71764;BME280;59602;52.142;5.408;2023-04-19T09:04:06;102928.00;;;12.46;42.41
71764;BME280;59602;52.142;5.408;2023-04-19T09:06:37;102925.72;;;12.36;46.27
71764;BME280;59602;52.142;5.408;2023-04-19T09:12:01;102918.09;;;12.29;44.13
71764;BME280;59602;52.142;5.408;2023-04-19T09:14:28;102913.88;;;12.32;44.29
71764;BME280;59602;52.142;5.408;2023-04-19T09:17:11;102918.22;;;12.33;43.57
71764;BME280;59602;52.142;5.408;2023-04-19T09:19:46;102917.97;;;12.25;44.09
71764;BME280;59602;52.142;5.408;2023-04-19T09:22:15;102913.31;;;12.26;42.40
71764;BME280;59602;52.142;5.408;2023-04-19T09:24:42;102916.06;;;12.26;42.16
71764;BME280;59602;52.142;5.408;2023-04-19T09:27:12;102911.38;;;12.27;42.94
71764;BME280;59602;52.142;5.408;2023-04-19T09:29:40;102909.44;;;12.27;43.92
71764;BME280;59602;52.142;5.408;2023-04-19T09:32:10;102907.31;;;12.33;42.50
71764;BME280;59602;52.142;5.408;2023-04-19T09:34:50;102912.97;;;12.28;43.42
71764;BME280;59602;52.142;5.408;2023-04-19T09:37:17;102900.81;;;12.25;42.22
71764;BME280;59602;52.142;5.408;2023-04-19T09:40:24;102906.72;;;12.27;44.01
71764;BME280;59602;52.142;5.408;2023-04-19T09:42:53;102898.88;;;12.25;43.63
71764;BME280;59602;52.142;5.408;2023-04-19T09:45:42;102910.38;;;12.31;43.64
71764;BME280;59602;52.142;5.408;2023-04-19T09:48:10;102904.69;;;12.36;43.21
71764;BME280;59602;52.142;5.408;2023-04-19T09:51:00;102903.66;;;12.41;44.15
71764;BME280;59602;52.142;5.408;2023-04-19T09:53:39;102905.34;;;12.45;45.38
71764;BME280;59602;52.142;5.408;2023-04-19T09:56:15;102897.75;;;12.51;44.54
71764;BME280;59602;52.142;5.408;2023-04-19T09:58:43;102902.19;;;12.56;44.59
71764;BME280;59602;52.142;5.408;2023-04-19T10:01:28;102902.97;;;12.56;43.76
71764;BME280;59602;52.142;5.408;2023-04-19T10:04:09;102889.44;;;12.60;44.22
71764;BME280;59602;52.142;5.408;2023-04-19T10:06:56;102899.78;;;12.66;45.16
71764;BME280;59602;52.142;5.408;2023-04-19T10:09:30;102899.44;;;12.68;44.28
71764;BME280;59602;52.142;5.408;2023-04-19T10:12:01;102886.22;;;12.70;42.00
71764;BME280;59602;52.142;5.408;2023-04-19T10:14:57;102885.91;;;12.72;41.90
71764;BME280;59602;52.142;5.408;2023-04-19T10:17:23;102881.00;;;12.77;42.65
71764;BME280;59602;52.142;5.408;2023-04-19T10:20:02;102874.53;;;12.82;42.35
71764;BME280;59602;52.142;5.408;2023-04-19T10:22:34;102882.34;;;12.83;41.83
71764;BME280;59602;52.142;5.408;2023-04-19T10:25:07;102882.59;;;12.91;42.57
71764;BME280;59602;52.142;5.408;2023-04-19T10:27:37;102877.66;;;12.96;43.34
71764;BME280;59602;52.142;5.408;2023-04-19T10:30:04;102879.03;;;13.02;42.04
71764;BME280;59602;52.142;5.408;2023-04-19T10:32:39;102879.22;;;13.09;43.31
71764;BME280;59602;52.142;5.408;2023-04-19T10:38:04;102868.50;;;13.17;42.96
71764;BME280;59602;52.142;5.408;2023-04-19T10:43:23;102865.75;;;13.29;42.31
71764;BME280;59602;52.142;5.408;2023-04-19T10:46:16;102865.38;;;13.31;40.75
71764;BME280;59602;52.142;5.408;2023-04-19T10:49:04;102871.84;;;13.38;40.34
71764;BME280;59602;52.142;5.408;2023-04-19T10:51:48;102871.84;;;13.38;39.87
71764;BME280;59602;52.142;5.408;2023-04-19T10:54:31;102863.22;;;13.36;40.48
71764;BME280;59602;52.142;5.408;2023-04-19T10:57:03;102869.22;;;13.42;40.59
71764;BME280;59602;52.142;5.408;2023-04-19T10:59:36;102870.66;;;13.52;40.38
71764;BME280;59602;52.142;5.408;2023-04-19T11:02:25;102856.72;;;13.57;39.46
71764;BME280;59602;52.142;5.408;2023-04-19T11:07:20;102843.63;;;13.62;39.86
71764;BME280;59602;52.142;5.408;2023-04-19T11:09:48;102854.38;;;13.71;39.64
71764;BME280;59602;52.142;5.408;2023-04-19T11:12:18;102847.94;;;13.79;40.74
71764;BME280;59602;52.142;5.408;2023-04-19T11:14:51;102836.31;;;13.82;38.84
71764;BME280;59602;52.142;5.408;2023-04-19T11:17:21;102837.19;;;13.86;38.38
71764;BME280;59602;52.142;5.408;2023-04-19T11:19:56;102833.81;;;13.93;37.36
71764;BME280;59602;52.142;5.408;2023-04-19T11:22:35;102834.25;;;13.95;38.46
71764;BME280;59602;52.142;5.408;2023-04-19T11:25:04;102826.44;;;13.94;37.42
71764;BME280;59602;52.142;5.408;2023-04-19T11:27:32;102822.09;;;13.93;37.32
71764;BME280;59602;52.142;5.408;2023-04-19T11:30:09;102818.38;;;14.01;37.36
71764;BME280;59602;52.142;5.408;2023-04-19T11:32:36;102810.69;;;14.06;37.25
71764;BME280;59602;52.142;5.408;2023-04-19T11:35:05;102815.13;;;14.11;38.54
71764;BME280;59602;52.142;5.408;2023-04-19T11:37:34;102806.34;;;14.21;37.46
71764;BME280;59602;52.142;5.408;2023-04-19T11:40:02;102800.25;;;14.28;37.79
71764;BME280;59602;52.142;5.408;2023-04-19T11:42:31;102786.66;;;14.31;36.57
71764;BME280;59602;52.142;5.408;2023-04-19T11:44:59;102796.09;;;14.34;35.04
71764;BME280;59602;52.142;5.408;2023-04-19T11:48:12;102796.09;;;14.34;36.35
71764;BME280;59602;52.142;5.408;2023-04-19T11:50:45;102792.28;;;14.39;34.26
71764;BME280;59602;52.142;5.408;2023-04-19T11:53:20;102783.78;;;14.44;36.23
71764;BME280;59602;52.142;5.408;2023-04-19T11:55:50;102785.84;;;14.47;37.10
71764;BME280;59602;52.142;5.408;2023-04-19T11:58:24;102781.56;;;14.49;36.82
71764;BME280;59602;52.142;5.408;2023-04-19T12:00:52;102780.16;;;14.56;34.42
71764;BME280;59602;52.142;5.408;2023-04-19T12:03:21;102780.16;;;14.56;33.40
71764;BME280;59602;52.142;5.408;2023-04-19T12:06:03;102777.75;;;14.54;33.12
71764;BME280;59602;52.142;5.408;2023-04-19T12:08:45;102773.19;;;14.58;31.54
71764;BME280;59602;52.142;5.408;2023-04-19T12:11:54;102780.25;;;14.59;33.45
71764;BME280;59602;52.142;5.408;2023-04-19T12:21:45;102765.34;;;14.76;33.34
71764;BME280;59602;52.142;5.408;2023-04-19T12:24:42;102784.72;;;14.67;30.94
71764;BME280;59602;52.142;5.408;2023-04-19T12:27:35;102770.66;;;14.69;31.48
71764;BME280;59602;52.142;5.408;2023-04-19T12:37:16;102756.47;;;14.83;32.38
71764;BME280;59602;52.142;5.408;2023-04-19T12:40:01;102752.66;;;14.87;33.87
71764;BME280;59602;52.142;5.408;2023-04-19T12:42:30;102753.44;;;14.88;32.24
71764;BME280;59602;52.142;5.408;2023-04-19T12:44:57;102752.69;;;14.91;33.85
71764;BME280;59602;52.142;5.408;2023-04-19T12:47:27;102742.69;;;14.99;33.74
71764;BME280;59602;52.142;5.408;2023-04-19T12:49:57;102744.69;;;15.02;33.45
71764;BME280;59602;52.142;5.408;2023-04-19T12:55:57;102735.19;;;14.95;33.58
71764;BME280;59602;52.142;5.408;2023-04-19T12:58:46;102727.03;;;14.99;32.88
71764;BME280;59602;52.142;5.408;2023-04-19T13:01:16;102731.94;;;15.09;32.49
71764;BME280;59602;52.142;5.408;2023-04-19T13:03:42;102735.47;;;15.33;32.51
71764;BME280;59602;52.142;5.408;2023-04-19T13:06:30;102715.09;;;15.57;32.05
71764;BME280;59602;52.142;5.408;2023-04-19T13:08:56;102722.09;;;15.77;32.05
71764;BME280;59602;52.142;5.408;2023-04-19T13:11:44;102708.97;;;15.90;31.22
71764;BME280;59602;52.142;5.408;2023-04-19T13:14:12;102700.78;;;15.94;31.51
71764;BME280;59602;52.142;5.408;2023-04-19T13:17:10;102700.50;;;16.03;32.14
71764;BME280;59602;52.142;5.408;2023-04-19T13:23:08;102692.47;;;16.17;31.48
71764;BME280;59602;52.142;5.408;2023-04-19T13:26:03;102685.88;;;16.22;32.01
71764;BME280;59602;52.142;5.408;2023-04-19T13:29:15;102683.53;;;16.24;32.49
71764;BME280;59602;52.142;5.408;2023-04-19T13:37:31;102661.31;;;16.36;31.80
71764;BME280;59602;52.142;5.408;2023-04-19T13:40:14;102664.16;;;16.43;31.89
71764;BME280;59602;52.142;5.408;2023-04-19T13:46:40;102657.78;;;16.35;31.12
71764;BME280;59602;52.142;5.408;2023-04-19T13:50:16;102658.25;;;16.41;30.29
71764;BME280;59602;52.142;5.408;2023-04-19T13:53:31;102656.66;;;16.40;30.32
71764;BME280;59602;52.142;5.408;2023-04-19T14:06:21;102631.41;;;16.61;30.81
71764;BME280;59602;52.142;5.408;2023-04-19T14:08:51;102624.78;;;16.66;30.64
71764;BME280;59602;52.142;5.408;2023-04-19T14:11:18;102615.78;;;16.69;29.60
71764;BME280;59602;52.142;5.408;2023-04-19T14:23:49;102604.84;;;16.76;30.84
71764;BME280;59602;52.142;5.408;2023-04-19T14:30:11;102595.56;;;16.88;30.54
71764;BME280;59602;52.142;5.408;2023-04-19T14:32:38;102595.88;;;16.79;29.21
71764;BME280;59602;52.142;5.408;2023-04-19T14:38:34;102585.97;;;16.71;28.83
71764;BME280;59602;52.142;5.408;2023-04-19T14:41:01;102579.28;;;16.68;30.02
71764;BME280;59602;52.142;5.408;2023-04-19T14:46:46;102575.72;;;16.68;29.75
71764;BME280;59602;52.142;5.408;2023-04-19T14:52:03;102574.09;;;16.59;30.27
71764;BME280;59602;52.142;5.408;2023-04-19T14:54:30;102571.41;;;16.67;30.64
71764;BME280;59602;52.142;5.408;2023-04-19T14:57:01;102566.66;;;16.60;31.58
71764;BME280;59602;52.142;5.408;2023-04-19T14:59:30;102566.53;;;16.49;32.57
71764;BME280;59602;52.142;5.408;2023-04-19T15:05:44;102553.81;;;16.30;34.67
71764;BME280;59602;52.142;5.408;2023-04-19T15:08:37;102554.47;;;16.16;33.66
71764;BME280;59602;52.142;5.408;2023-04-19T15:11:27;102546.59;;;16.15;35.54
71764;BME280;59602;52.142;5.408;2023-04-19T15:22:48;102554.78;;;16.11;34.44
71764;BME280;59602;52.142;5.408;2023-04-19T15:25:14;102539.88;;;16.09;34.70
71764;BME280;59602;52.142;5.408;2023-04-19T15:27:41;102533.53;;;16.05;35.07
71764;BME280;59602;52.142;5.408;2023-04-19T15:30:08;102535.56;;;16.08;34.98
71764;BME280;59602;52.142;5.408;2023-04-19T15:32:35;102541.75;;;16.01;32.56
71764;BME280;59602;52.142;5.408;2023-04-19T15:35:08;102535.78;;;15.95;34.40
71764;BME280;59602;52.142;5.408;2023-04-19T15:37:35;102532.69;;;15.97;33.63
71764;BME280;59602;52.142;5.408;2023-04-19T15:40:40;102531.44;;;15.91;33.76
71764;BME280;59602;52.142;5.408;2023-04-19T15:43:08;102532.28;;;15.95;36.61
71764;BME280;59602;52.142;5.408;2023-04-19T15:45:35;102529.97;;;16.01;37.05
71764;BME280;59602;52.142;5.408;2023-04-19T15:48:25;102530.38;;;15.99;36.52
71764;BME280;59602;52.142;5.408;2023-04-19T16:15:59;102524.50;;;15.70;37.89
71764;BME280;59602;52.142;5.408;2023-04-19T16:18:26;102517.50;;;15.73;39.57
71764;BME280;59602;52.142;5.408;2023-04-19T16:20:53;102512.09;;;15.76;40.14
71764;BME280;59602;52.142;5.408;2023-04-19T16:23:22;102511.16;;;15.69;39.60
71764;BME280;59602;52.142;5.408;2023-04-19T16:25:49;102510.25;;;15.57;37.79
71764;BME280;59602;52.142;5.408;2023-04-19T16:28:16;102512.56;;;15.55;38.94
71764;BME280;59602;52.142;5.408;2023-04-19T16:30:45;102505.88;;;15.53;38.16
71764;BME280;59602;52.142;5.408;2023-04-19T16:33:12;102515.69;;;15.54;40.75
71764;BME280;59602;52.142;5.408;2023-04-19T16:35:40;102518.09;;;15.59;41.34
71764;BME280;59602;52.142;5.408;2023-04-19T16:38:07;102510.25;;;15.57;38.46
71764;BME280;59602;52.142;5.408;2023-04-19T16:40:33;102514.53;;;15.55;39.07
71764;BME280;59602;52.142;5.408;2023-04-19T16:43:00;102508.53;;;15.46;37.71
71764;BME280;59602;52.142;5.408;2023-04-19T16:45:27;102500.59;;;15.37;39.78
71764;BME280;59602;52.142;5.408;2023-04-19T16:47:53;102513.03;;;15.31;37.83
71764;BME280;59602;52.142;5.408;2023-04-19T16:50:20;102507.88;;;15.26;38.85
71764;BME280;59602;52.142;5.408;2023-04-19T16:52:47;102500.06;;;15.28;39.30
71764;BME280;59602;52.142;5.408;2023-04-19T16:55:14;102508.28;;;15.28;38.88
71764;BME280;59602;52.142;5.408;2023-04-19T16:57:41;102511.31;;;15.19;36.99
71764;BME280;59602;52.142;5.408;2023-04-19T17:00:08;102502.56;;;15.10;38.61
71764;BME280;59602;52.142;5.408;2023-04-19T17:02:35;102509.69;;;15.14;38.96
71764;BME280;59602;52.142;5.408;2023-04-19T17:05:03;102506.16;;;15.14;40.41
71764;BME280;59602;52.142;5.408;2023-04-19T17:07:30;102500.94;;;15.05;39.56
71764;BME280;59602;52.142;5.408;2023-04-19T17:09:56;102498.47;;;14.97;37.90
71764;BME280;59602;52.142;5.408;2023-04-19T17:12:24;102496.44;;;14.93;40.08
71764;BME280;59602;52.142;5.408;2023-04-19T17:14:50;102503.16;;;14.96;39.84
71764;BME280;59602;52.142;5.408;2023-04-19T17:17:17;102506.72;;;15.00;38.66
71764;BME280;59602;52.142;5.408;2023-04-19T17:19:45;102496.09;;;14.95;40.07
71764;BME280;59602;52.142;5.408;2023-04-19T17:22:13;102500.25;;;14.85;39.23
71764;BME280;59602;52.142;5.408;2023-04-19T17:24:41;102493.91;;;14.81;39.34
71764;BME280;59602;52.142;5.408;2023-04-19T17:27:08;102488.81;;;14.80;39.72
71764;BME280;59602;52.142;5.408;2023-04-19T17:29:35;102491.88;;;14.74;39.63
71764;BME280;59602;52.142;5.408;2023-04-19T17:32:01;102488.63;;;14.69;39.30
71764;BME280;59602;52.142;5.408;2023-04-19T17:34:28;102484.69;;;14.66;39.71
71764;BME280;59602;52.142;5.408;2023-04-19T17:36:56;102483.72;;;14.55;40.03
71764;BME280;59602;52.142;5.408;2023-04-19T17:39:22;102496.53;;;14.51;40.09
71764;BME280;59602;52.142;5.408;2023-04-19T17:41:53;102488.63;;;14.46;39.45
71764;BME280;59602;52.142;5.408;2023-04-19T17:44:22;102493.31;;;14.45;38.14
71764;BME280;59602;52.142;5.408;2023-04-19T17:46:49;102498.59;;;14.35;39.94
71764;BME280;59602;52.142;5.408;2023-04-19T17:49:15;102486.50;;;14.36;39.30
71764;BME280;59602;52.142;5.408;2023-04-19T17:51:44;102486.88;;;14.34;39.60
71764;BME280;59602;52.142;5.408;2023-04-19T17:54:12;102492.28;;;14.30;38.63
71764;BME280;59602;52.142;5.408;2023-04-19T17:56:39;102491.13;;;14.31;39.29
71764;BME280;59602;52.142;5.408;2023-04-19T17:59:06;102490.81;;;14.37;41.28
71764;BME280;59602;52.142;5.408;2023-04-19T18:01:33;102490.31;;;14.31;39.75
71764;BME280;59602;52.142;5.408;2023-04-19T18:04:01;102492.47;;;14.18;38.18
71764;BME280;59602;52.142;5.408;2023-04-19T18:06:28;102485.06;;;13.99;38.26
71764;BME280;59602;52.142;5.408;2023-04-19T18:08:55;102491.50;;;13.87;38.25
71764;BME280;59602;52.142;5.408;2023-04-19T18:11:22;102491.28;;;13.77;38.28
71764;BME280;59602;52.142;5.408;2023-04-19T18:13:51;102490.50;;;13.76;38.41
71764;BME280;59602;52.142;5.408;2023-04-19T18:16:17;102486.69;;;13.81;38.47
71764;BME280;59602;52.142;5.408;2023-04-19T18:18:44;102492.22;;;13.84;38.01
71764;BME280;59602;52.142;5.408;2023-04-19T18:21:11;102495.22;;;13.79;38.25
71764;BME280;59602;52.142;5.408;2023-04-19T18:23:38;102495.75;;;13.65;38.28
71764;BME280;59602;52.142;5.408;2023-04-19T18:26:06;102494.38;;;13.56;38.97
71764;BME280;59602;52.142;5.408;2023-04-19T18:28:33;102502.44;;;13.48;39.31
71764;BME280;59602;52.142;5.408;2023-04-19T18:31:01;102494.00;;;13.38;40.13
71764;BME280;59602;52.142;5.408;2023-04-19T18:33:28;102504.75;;;13.31;39.97
71764;BME280;59602;52.142;5.408;2023-04-19T18:35:54;102507.25;;;13.20;40.30
71764;BME280;59602;52.142;5.408;2023-04-19T18:38:21;102504.88;;;13.18;42.90
71764;BME280;59602;52.142;5.408;2023-04-19T18:40:48;102512.56;;;13.28;43.37
71764;BME280;59602;52.142;5.408;2023-04-19T18:43:15;102512.16;;;13.30;41.50
71764;BME280;59602;52.142;5.408;2023-04-19T18:45:42;102517.75;;;13.18;40.96
71764;BME280;59602;52.142;5.408;2023-04-19T18:48:08;102521.63;;;13.01;41.59
71764;BME280;59602;52.142;5.408;2023-04-19T18:50:36;102521.38;;;12.90;42.38
71764;BME280;59602;52.142;5.408;2023-04-19T18:53:03;102521.94;;;12.80;42.89
71764;BME280;59602;52.142;5.408;2023-04-19T18:55:30;102522.53;;;12.73;43.44
71764;BME280;59602;52.142;5.408;2023-04-19T18:57:57;102519.66;;;12.66;43.42
71764;BME280;59602;52.142;5.408;2023-04-19T19:00:26;102527.38;;;12.64;44.41
71764;BME280;59602;52.142;5.408;2023-04-19T19:02:53;102531.84;;;12.56;44.34
71764;BME280;59602;52.142;5.408;2023-04-19T19:05:22;102533.25;;;12.50;44.69
71764;BME280;59602;52.142;5.408;2023-04-19T19:07:49;102536.97;;;12.42;45.25
71764;BME280;59602;52.142;5.408;2023-04-19T19:10:16;102538.69;;;12.34;45.67
71764;BME280;59602;52.142;5.408;2023-04-19T19:12:48;102539.75;;;12.30;46.88
71764;BME280;59602;52.142;5.408;2023-04-19T19:15:15;102543.06;;;12.23;47.38
71764;BME280;59602;52.142;5.408;2023-04-19T19:17:42;102549.56;;;12.18;47.68
71764;BME280;59602;52.142;5.408;2023-04-19T19:20:15;102551.66;;;12.09;47.76
71764;BME280;59602;52.142;5.408;2023-04-19T19:22:42;102551.47;;;12.02;48.37
71764;BME280;59602;52.142;5.408;2023-04-19T19:25:10;102556.81;;;11.98;48.90
71764;BME280;59602;52.142;5.408;2023-04-19T19:27:37;102551.72;;;11.97;49.23
71764;BME280;59602;52.142;5.408;2023-04-19T19:30:05;102563.22;;;11.90;49.10
71764;BME280;59602;52.142;5.408;2023-04-19T19:32:33;102560.03;;;11.88;49.12
71764;BME280;59602;52.142;5.408;2023-04-19T19:35:00;102568.41;;;11.83;49.33
71764;BME280;59602;52.142;5.408;2023-04-19T19:37:34;102560.03;;;11.76;49.25
71764;BME280;59602;52.142;5.408;2023-04-19T19:40:02;102565.03;;;11.74;49.63
71764;BME280;59602;52.142;5.408;2023-04-19T19:42:32;102568.00;;;11.69;49.52
71764;BME280;59602;52.142;5.408;2023-04-19T19:45:00;102577.09;;;11.73;49.25
71764;BME280;59602;52.142;5.408;2023-04-19T19:47:27;102581.28;;;11.70;48.65
71764;BME280;59602;52.142;5.408;2023-04-19T19:49:57;102567.88;;;11.65;46.24
71764;BME280;59602;52.142;5.408;2023-04-19T19:52:27;102575.59;;;11.63;44.59
71764;BME280;59602;52.142;5.408;2023-04-19T19:54:53;102576.75;;;11.62;44.10
71764;BME280;59602;52.142;5.408;2023-04-19T19:57:20;102584.16;;;11.61;42.79
71764;BME280;59602;52.142;5.408;2023-04-19T20:00:08;102578.56;;;11.58;42.44
71764;BME280;59602;52.142;5.408;2023-04-19T20:02:47;102586.53;;;11.51;41.25
71764;BME280;59602;52.142;5.408;2023-04-19T20:05:17;102592.56;;;11.44;40.19
71764;BME280;59602;52.142;5.408;2023-04-19T20:07:44;102592.22;;;11.46;39.82
71764;BME280;59602;52.142;5.408;2023-04-19T20:10:28;102597.31;;;11.47;39.33
71764;BME280;59602;52.142;5.408;2023-04-19T20:12:54;102599.59;;;11.45;38.79
71764;BME280;59602;52.142;5.408;2023-04-19T20:15:22;102601.97;;;11.47;38.82
71764;BME280;59602;52.142;5.408;2023-04-19T20:17:49;102597.09;;;11.40;37.90
71764;BME280;59602;52.142;5.408;2023-04-19T20:20:17;102594.63;;;11.35;37.99
71764;BME280;59602;52.142;5.408;2023-04-19T20:22:44;102613.56;;;11.31;37.40
71764;BME280;59602;52.142;5.408;2023-04-19T20:25:11;102609.59;;;11.29;37.51
71764;BME280;59602;52.142;5.408;2023-04-19T20:27:39;102605.75;;;11.30;37.08
71764;BME280;59602;52.142;5.408;2023-04-19T20:30:07;102620.34;;;11.25;36.83
71764;BME280;59602;52.142;5.408;2023-04-19T20:32:34;102627.63;;;11.21;37.55
71764;BME280;59602;52.142;5.408;2023-04-19T20:35:03;102621.28;;;11.17;36.59
71764;BME280;59602;52.142;5.408;2023-04-19T20:37:38;102624.56;;;11.10;37.04
71764;BME280;59602;52.142;5.408;2023-04-19T20:40:07;102620.59;;;11.08;37.12
71764;BME280;59602;52.142;5.408;2023-04-19T20:42:35;102619.44;;;11.09;36.52
71764;BME280;59602;52.142;5.408;2023-04-19T20:45:01;102624.31;;;11.03;36.42
71764;BME280;59602;52.142;5.408;2023-04-19T20:47:28;102618.75;;;10.99;35.83
71764;BME280;59602;52.142;5.408;2023-04-19T20:49:56;102617.50;;;10.97;36.19
71764;BME280;59602;52.142;5.408;2023-04-19T20:52:32;102622.03;;;10.93;36.30
71764;BME280;59602;52.142;5.408;2023-04-19T20:54:59;102618.72;;;10.87;35.94
71764;BME280;59602;52.142;5.408;2023-04-19T20:57:25;102624.84;;;10.84;35.83
71764;BME280;59602;52.142;5.408;2023-04-19T20:59:52;102626.31;;;10.82;35.89
71764;BME280;59602;52.142;5.408;2023-04-19T21:02:19;102617.69;;;10.79;36.13
71764;BME280;59602;52.142;5.408;2023-04-19T21:04:48;102621.75;;;10.73;35.92
71764;BME280;59602;52.142;5.408;2023-04-19T21:07:14;102621.28;;;10.71;36.47
71764;BME280;59602;52.142;5.408;2023-04-19T21:09:41;102621.19;;;10.68;36.20
71764;BME280;59602;52.142;5.408;2023-04-19T21:12:08;102628.28;;;10.60;36.17
71764;BME280;59602;52.142;5.408;2023-04-19T21:14:35;102623.19;;;10.58;36.27
71764;BME280;59602;52.142;5.408;2023-04-19T21:17:02;102624.63;;;10.56;36.11
71764;BME280;59602;52.142;5.408;2023-04-19T21:19:29;102625.31;;;10.53;36.00
71764;BME280;59602;52.142;5.408;2023-04-19T21:21:57;102623.28;;;10.50;36.25
71764;BME280;59602;52.142;5.408;2023-04-19T21:24:24;102624.41;;;10.49;36.00
71764;BME280;59602;52.142;5.408;2023-04-19T21:26:50;102622.50;;;10.49;35.96
71764;BME280;59602;52.142;5.408;2023-04-19T21:29:18;102629.84;;;10.49;36.26
71764;BME280;59602;52.142;5.408;2023-04-19T21:31:46;102618.50;;;10.47;36.33
71764;BME280;59602;52.142;5.408;2023-04-19T21:34:12;102616.00;;;10.42;36.38
71764;BME280;59602;52.142;5.408;2023-04-19T21:36:39;102621.28;;;10.38;36.63
71764;BME280;59602;52.142;5.408;2023-04-19T21:39:06;102619.56;;;10.33;36.13
71764;BME280;59602;52.142;5.408;2023-04-19T21:41:34;102618.97;;;10.28;36.14
71764;BME280;59602;52.142;5.408;2023-04-19T21:44:01;102618.03;;;10.24;36.26
71764;BME280;59602;52.142;5.408;2023-04-19T21:46:27;102611.56;;;10.16;36.75
71764;BME280;59602;52.142;5.408;2023-04-19T21:48:54;102609.16;;;10.14;36.90
71764;BME280;59602;52.142;5.408;2023-04-19T21:51:21;102613.47;;;10.15;36.89
71764;BME280;59602;52.142;5.408;2023-04-19T21:53:48;102610.63;;;10.12;36.55
71764;BME280;59602;52.142;5.408;2023-04-19T21:56:14;102616.19;;;10.15;36.46